Time;durP1;ratioP1;P1;durP2;ratioP2;P2;SDS_P1;SDS_P2;PMS_P1;PMS_P2;Temp;Humidity;BMP_temperature;BMP_pressure;BME280_temperature;BME280_humidity;BME280_pressure;Samples;Min_cycle;Max_cycle;Signal;HPM_P1;HPM_P2
2020/12/01 00:01:39;;;;;;;;;;;;;;;16.27;74.66;101982.03;5054532;28;1356;-50
2020/12/01 00:04:04;;;;;;;;;;;;;;;16.26;75.19;101975.84;5056886;28;1739;-51
2020/12/01 00:06:30;;;;;;;;;;;;;;;16.27;75.50;101971.34;5072821;28;1706;-51
2020/12/01 00:08:55;;;;;;;;;;;;;;;16.23;75.31;101962.66;5074427;28;888;-51
2020/12/01 00:11:20;;;;;;;;;;;;;;;16.23;74.44;101972.47;5074546;28;914;-51
2020/12/01 00:13:46;;;;;;;;;;;;;;;16.21;75.11;101972.56;5066035;28;1711;-51
2020/12/01 00:16:12;;;;;;;;;;;;;;;16.22;75.63;101982.31;5073868;28;1898;-51
2020/12/01 00:18:39;;;;;;;;;;;;;;;16.23;75.58;101980.50;5057476;28;1806;-51
2020/12/01 00:21:04;;;;;;;;;;;;;;;16.19;74.38;101982.47;5054681;28;1873;-52
2020/12/01 00:23:29;;;;;;;;;;;;;;;16.20;75.36;101981.53;5059337;28;1752;-51
2020/12/01 00:25:55;;;;;;;;;;;;;;;16.17;75.46;101980.84;5074154;28;1733;-51
2020/12/01 00:28:20;;;;;;;;;;;;;;;16.17;74.67;101997.72;5074177;28;1751;-51
2020/12/01 00:30:45;;;;;;;;;;;;;;;16.14;74.20;101981.88;5073487;28;1474;-52
2020/12/01 00:33:11;;;;;;;;;;;;;;;16.12;75.18;101994.47;5062425;28;1700;-51
2020/12/01 00:35:36;;;;;;;;;;;;;;;16.10;74.34;101996.34;5074459;28;837;-51
2020/12/01 00:38:02;;;;;;;;;;;;;;;16.11;74.20;102000.72;5059367;28;2017;-51
2020/12/01 00:40:27;;;;;;;;;;;;;;;16.13;75.06;101988.16;5054175;28;864;-51
2020/12/01 00:42:52;;;;;;;;;;;;;;;16.14;74.77;101992.56;5054606;28;1744;-52
2020/12/01 00:45:18;;;;;;;;;;;;;;;16.09;74.15;101995.50;5072108;28;1699;-51
2020/12/01 00:47:43;;;;;;;;;;;;;;;16.05;74.18;101983.25;5073633;28;1732;-51
2020/12/01 00:50:10;;;;;;;;;;;;;;;16.07;75.35;101999.19;5059433;28;1674;-51
2020/12/01 00:52:35;;;;;;;;;;;;;;;16.01;75.21;101980.84;5059727;28;1787;-51
2020/12/01 00:55:01;;;;;;;;;;;;;;;16.01;74.92;101975.50;5069700;28;1741;-51
2020/12/01 00:57:26;;;;;;;;;;;;;;;16.02;74.86;101991.44;5073554;28;1948;-51
2020/12/01 00:59:51;;;;;;;;;;;;;;;15.99;74.63;101977.41;5073870;28;864;-50
2020/12/01 01:02:17;;;;;;;;;;;;;;;15.99;74.45;101975.59;5073790;28;1368;-51
2020/12/01 01:04:42;;;;;;;;;;;;;;;16.03;74.33;101985.16;5064108;28;1774;-50
2020/12/01 01:07:07;;;;;;;;;;;;;;;16.08;74.41;101983.09;5070180;28;1487;-51
2020/12/01 01:09:33;;;;;;;;;;;;;;;16.03;74.49;101973.63;5070085;28;1462;-52
2020/12/01 01:11:58;;;;;;;;;;;;;;;16.01;75.11;101968.38;5053529;28;868;-51
2020/12/01 01:14:23;;;;;;;;;;;;;;;16.01;74.55;101976.38;5053971;28;2035;-51
2020/12/01 01:16:48;;;;;;;;;;;;;;;16.04;74.54;101984.22;5053142;28;1977;-51
2020/12/01 01:19:14;;;;;;;;;;;;;;;16.02;74.30;101971.91;5056895;28;1773;-51
2020/12/01 01:21:41;;;;;;;;;;;;;;;16.04;73.91;101975.34;5073677;28;1740;-51
2020/12/01 01:24:06;;;;;;;;;;;;;;;16.05;73.79;101982.41;5062995;28;1608;-51
2020/12/01 01:26:31;;;;;;;;;;;;;;;16.00;74.68;101968.47;5054742;28;1745;-51
2020/12/01 01:28:56;;;;;;;;;;;;;;;16.00;74.11;101960.47;5053551;28;853;-51
2020/12/01 01:31:22;;;;;;;;;;;;;;;16.01;73.79;101962.16;5053595;28;862;-51
2020/12/01 01:33:47;;;;;;;;;;;;;;;15.98;74.05;101963.22;5060998;28;1780;-51
2020/12/01 01:36:12;;;;;;;;;;;;;;;15.96;73.79;101964.25;5060467;28;2050;-52
2020/12/01 01:38:37;;;;;;;;;;;;;;;15.93;74.64;101964.41;5073214;28;852;-51
2020/12/01 01:41:03;;;;;;;;;;;;;;;15.94;74.47;101953.66;5072455;28;1646;-52
2020/12/01 01:43:28;;;;;;;;;;;;;;;15.93;74.20;101962.59;5057665;28;1606;-51
2020/12/01 01:45:53;;;;;;;;;;;;;;;15.91;73.84;101954.69;5053711;28;1661;-51
2020/12/01 01:48:29;;;;;;;;;;;;;;;15.94;74.63;101958.16;5053391;28;868;-51
2020/12/01 01:51:07;;;;;;;;;;;;;;;15.95;74.30;101949.19;5053437;28;833;-51
2020/12/01 01:53:34;;;;;;;;;;;;;;;15.94;74.00;101953.66;5064708;28;1526;-52
2020/12/01 01:56:01;;;;;;;;;;;;;;;15.94;74.25;101952.81;5071294;28;1962;-51
2020/12/01 01:58:28;;;;;;;;;;;;;;;15.94;74.80;101955.47;5073361;28;845;-51
2020/12/01 02:13:37;;;;;;;;;;;;;;;15.82;74.33;101952.53;5073694;27;1787;-49
2020/12/01 02:16:02;;;;;;;;;;;;;;;15.83;74.22;101951.59;5062128;28;1813;-50
2020/12/01 02:18:33;;;;;;;;;;;;;;;15.85;74.55;101944.34;5058371;28;1749;-50
2020/12/01 02:21:01;;;;;;;;;;;;;;;15.88;73.99;101949.53;5067013;28;1906;-50
2020/12/01 02:23:28;;;;;;;;;;;;;;;15.86;74.58;101935.44;5096932;28;1225;-50
2020/12/01 02:26:00;;;;;;;;;;;;;;;15.85;73.88;101949.69;5048429;28;1400;-51
2020/12/01 02:28:26;;;;;;;;;;;;;;;15.87;73.35;101939.78;5047676;28;1871;-49
2020/12/01 02:30:51;;;;;;;;;;;;;;;15.89;73.89;101943.22;5049758;28;888;-51
2020/12/01 02:33:17;;;;;;;;;;;;;;;15.88;74.62;101948.69;5055243;28;1551;-49
2020/12/01 02:35:42;;;;;;;;;;;;;;;15.95;74.18;101949.19;5051165;28;1738;-50
2020/12/01 02:38:09;;;;;;;;;;;;;;;15.95;74.71;101936.69;5053472;28;1577;-50
2020/12/01 02:40:36;;;;;;;;;;;;;;;16.03;73.95;101928.25;5058603;28;1951;-50
2020/12/01 02:43:09;;;;;;;;;;;;;;;15.96;74.35;101940.25;5054852;28;1500;-50
2020/12/01 02:45:35;;;;;;;;;;;;;;;16.00;74.57;101945.31;5059767;28;1031;-49
2020/12/01 02:48:01;;;;;;;;;;;;;;;15.94;74.87;101939.47;5062330;28;1655;-50
2020/12/01 02:50:32;;;;;;;;;;;;;;;15.86;75.50;101923.91;5058374;28;1479;-50
2020/12/01 02:52:59;;;;;;;;;;;;;;;15.93;74.50;101929.75;5066217;28;1962;-50
2020/12/01 02:55:24;;;;;;;;;;;;;;;15.89;74.46;101932.56;5050739;28;1550;-50
2020/12/01 02:57:50;;;;;;;;;;;;;;;15.96;75.45;101934.91;5051206;28;1625;-50
2020/12/01 03:00:16;;;;;;;;;;;;;;;15.93;75.44;101937.75;5060153;28;923;-50
2020/12/01 03:02:43;;;;;;;;;;;;;;;15.86;75.25;101930.09;5066050;28;1894;-53
2020/12/01 03:05:09;;;;;;;;;;;;;;;15.87;75.70;101931.78;5036997;28;1544;-52
2020/12/01 03:07:37;;;;;;;;;;;;;;;15.87;76.51;101937.13;5045783;28;1514;-53
2020/12/01 03:10:04;;;;;;;;;;;;;;;15.87;76.47;101936.28;5055727;28;1503;-50
2020/12/01 03:12:31;;;;;;;;;;;;;;;15.90;76.14;101936.13;5055256;28;1806;-49
2020/12/01 03:14:58;;;;;;;;;;;;;;;15.84;76.17;101937.31;5049422;28;1452;-49
2020/12/01 03:17:23;;;;;;;;;;;;;;;15.81;75.31;101920.63;5035987;28;1527;-49
2020/12/01 03:19:49;;;;;;;;;;;;;;;15.86;75.59;101938.09;5053996;28;1871;-51
2020/12/01 03:22:15;;;;;;;;;;;;;;;15.82;76.00;101936.53;5049255;28;1914;-52
2020/12/01 03:24:41;;;;;;;;;;;;;;;15.99;74.59;101932.91;5033762;28;1650;-49
2020/12/01 03:27:08;;;;;;;;;;;;;;;15.88;75.25;101938.88;5048424;28;1581;-49
2020/12/01 03:29:34;;;;;;;;;;;;;;;15.88;71.13;101938.00;5031774;28;1961;-50
2020/12/01 03:32:01;;;;;;;;;;;;;;;15.82;74.37;101943.69;5032948;28;1656;-49
2020/12/01 03:34:32;;;;;;;;;;;;;;;15.75;74.52;101948.50;5025042;28;1476;-51
2020/12/01 03:36:58;;;;;;;;;;;;;;;15.68;75.79;101939.94;5047365;28;884;-51
2020/12/01 03:39:23;;;;;;;;;;;;;;;15.70;75.05;101934.53;5036504;28;2359;-50
2020/12/01 03:41:49;;;;;;;;;;;;;;;15.68;75.23;101939.09;5050115;28;1965;-50
2020/12/01 03:44:15;;;;;;;;;;;;;;;15.64;75.14;101945.53;5053338;28;1522;-50
2020/12/01 03:46:41;;;;;;;;;;;;;;;15.65;75.46;101939.25;5035493;28;1744;-51
2020/12/01 03:49:07;;;;;;;;;;;;;;;15.60;75.97;101934.19;5034914;28;829;-49
2020/12/01 03:51:32;;;;;;;;;;;;;;;15.58;75.36;101927.19;5037098;28;1933;-49
2020/12/01 03:53:58;;;;;;;;;;;;;;;15.60;75.20;101938.66;5039585;28;1686;-50
2020/12/01 03:56:24;;;;;;;;;;;;;;;15.62;75.16;101958.94;5037022;28;1689;-50
2020/12/01 03:58:52;;;;;;;;;;;;;;;15.60;75.79;101949.31;5038816;28;1708;-49
2020/12/01 04:01:18;;;;;;;;;;;;;;;15.60;75.59;101939.50;5038789;28;1885;-50
2020/12/01 04:03:44;;;;;;;;;;;;;;;15.58;75.39;101944.06;5046863;28;1704;-50
2020/12/01 04:06:10;;;;;;;;;;;;;;;15.56;75.39;101942.41;5044176;28;1534;-50
2020/12/01 04:08:37;;;;;;;;;;;;;;;15.57;75.14;101933.47;5045626;28;1597;-50
2020/12/01 04:11:04;;;;;;;;;;;;;;;15.57;76.01;101934.34;5041873;28;1588;-50
2020/12/01 04:13:30;;;;;;;;;;;;;;;15.54;75.79;101925.63;5035737;28;1547;-50
2020/12/01 04:15:58;;;;;;;;;;;;;;;15.55;75.81;101940.72;5034224;28;865;-49
2020/12/01 04:18:25;;;;;;;;;;;;;;;15.53;75.95;101948.78;5044100;28;1967;-50
2020/12/01 04:20:51;;;;;;;;;;;;;;;15.57;75.15;101946.81;5047883;28;1976;-50
2020/12/01 04:23:17;;;;;;;;;;;;;;;15.51;75.73;101946.19;5038418;28;1720;-50
2020/12/01 04:25:43;;;;;;;;;;;;;;;15.54;75.05;101954.97;5032898;28;1677;-49
2020/12/01 04:28:09;;;;;;;;;;;;;;;15.51;74.98;101951.53;5033485;28;1799;-49
2020/12/01 04:30:34;;;;;;;;;;;;;;;15.47;75.53;101938.47;5051929;28;873;-50
2020/12/01 04:33:00;;;;;;;;;;;;;;;15.47;75.71;101938.47;5049438;28;1465;-50
2020/12/01 04:35:27;;;;;;;;;;;;;;;15.43;75.51;101943.09;5051205;28;1504;-50
2020/12/01 04:38:00;;;;;;;;;;;;;;;15.47;75.15;101944.63;5036079;28;1547;-50
2020/12/01 04:40:43;;;;;;;;;;;;;;;15.45;75.44;101938.53;5046235;28;1795;-50
2020/12/01 04:43:41;;;;;;;;;;;;;;;15.43;75.69;101935.09;5051168;28;2023;-50
2020/12/01 04:46:12;;;;;;;;;;;;;;;15.44;74.83;101942.16;5038391;28;1230;-49
2020/12/01 04:48:52;;;;;;;;;;;;;;;15.44;74.91;101939.50;5044460;28;1919;-49
2020/12/01 04:51:30;;;;;;;;;;;;;;;15.44;74.88;101939.50;5041559;28;1965;-50
2020/12/01 04:54:08;;;;;;;;;;;;;;;15.44;75.37;101943.97;5038354;28;1939;-49
2020/12/01 04:56:54;;;;;;;;;;;;;;;15.46;75.36;101947.41;5035470;28;1811;-50
2020/12/01 04:59:39;;;;;;;;;;;;;;;15.43;75.43;101942.22;5030319;28;1537;-50
2020/12/01 05:02:17;;;;;;;;;;;;;;;15.45;74.99;101954.53;5029159;28;1941;-49
2020/12/01 05:05:02;;;;;;;;;;;;;;;15.46;75.72;101948.28;5025642;28;1496;-49
2020/12/01 05:07:53;;;;;;;;;;;;;;;15.48;74.76;101937.53;5026972;28;1508;-50
2020/12/01 05:10:20;;;;;;;;;;;;;;;15.51;74.25;101935.53;5029317;28;1520;-50
2020/12/01 05:12:57;;;;;;;;;;;;;;;15.55;74.46;101940.72;5029053;28;1773;-49
2020/12/01 05:15:27;;;;;;;;;;;;;;;15.58;74.10;101941.41;5024594;28;1137;-50
2020/12/01 05:18:03;;;;;;;;;;;;;;;15.53;74.47;101935.44;5024883;28;1590;-50
2020/12/01 05:20:29;;;;;;;;;;;;;;;15.52;74.35;101926.59;5025108;28;1658;-50
2020/12/01 05:23:22;;;;;;;;;;;;;;;15.55;75.09;101946.03;5030251;28;1909;-49
2020/12/01 05:25:57;;;;;;;;;;;;;;;15.50;75.60;101936.50;5021144;28;2569;-50
2020/12/01 05:28:23;;;;;;;;;;;;;;;15.55;74.85;101941.56;5032726;28;1874;-49
2020/12/01 05:30:57;;;;;;;;;;;;;;;15.55;74.50;101932.72;5028682;28;1305;-49
2020/12/01 05:33:25;;;;;;;;;;;;;;;15.55;75.15;101941.56;5033148;28;1693;-51
2020/12/01 05:35:56;;;;;;;;;;;;;;;15.55;75.14;101940.72;5034940;28;1438;-51
2020/12/01 05:38:22;;;;;;;;;;;;;;;15.55;74.56;101932.72;5027541;28;1767;-50
2020/12/01 05:40:50;;;;;;;;;;;;;;;15.51;75.75;101948.84;4986011;28;10763;-50
2020/12/01 05:43:42;;;;;;;;;;;;;;;15.48;75.64;101945.53;5005728;28;1511;-50
2020/12/01 05:46:22;;;;;;;;;;;;;;;15.39;76.31;101941.53;5005868;28;1322;-50
2020/12/01 05:48:48;;;;;;;;;;;;;;;15.48;75.91;101954.38;4988534;28;1590;-50
2020/12/01 05:51:16;;;;;;;;;;;;;;;15.48;76.35;101953.53;4987304;28;1541;-50
2020/12/01 05:53:41;;;;;;;;;;;;;;;15.48;75.69;101954.38;4986813;28;1496;-51
2020/12/01 05:56:14;;;;;;;;;;;;;;;15.47;75.81;101947.31;5010969;28;1555;-51
2020/12/01 05:58:41;;;;;;;;;;;;;;;15.43;75.72;101952.91;4998787;28;1568;-51
2020/12/01 06:01:08;;;;;;;;;;;;;;;15.37;76.24;101951.41;5005751;28;1878;-50
2020/12/01 06:03:46;;;;;;;;;;;;;;;15.36;76.00;101952.38;5007480;28;1599;-51
2020/12/01 06:06:18;;;;;;;;;;;;;;;15.35;76.93;101950.66;4990758;28;1548;-51
2020/12/01 06:08:53;;;;;;;;;;;;;;;15.34;77.04;101951.59;4989919;28;1588;-51
2020/12/01 06:11:38;;;;;;;;;;;;;;;15.35;76.26;101955.13;4990887;28;1778;-52
2020/12/01 06:14:29;;;;;;;;;;;;;;;15.35;76.27;101955.13;4992890;28;1553;-50
2020/12/01 06:16:57;;;;;;;;;;;;;;;15.30;76.91;101958.03;4990211;28;1639;-50
2020/12/01 06:19:26;;;;;;;;;;;;;;;15.31;76.72;101951.75;4997904;28;1477;-50
2020/12/01 06:22:10;;;;;;;;;;;;;;;15.30;76.86;101950.03;4999683;28;1968;-50
2020/12/01 06:24:56;;;;;;;;;;;;;;;15.29;77.44;101941.16;4998551;28;885;-50
2020/12/01 06:27:38;;;;;;;;;;;;;;;15.26;77.14;101961.78;4986303;28;1458;-50
2020/12/01 06:30:12;;;;;;;;;;;;;;;15.25;77.68;101954.75;4988508;28;1077;-50
2020/12/01 06:32:39;;;;;;;;;;;;;;;15.28;77.83;101959.94;4989578;28;1634;-51
2020/12/01 06:35:27;;;;;;;;;;;;;;;15.26;77.46;101945.78;5001114;28;1488;-50
2020/12/01 06:38:10;;;;;;;;;;;;;;;15.24;77.28;101953.00;4996540;28;1629;-52
2020/12/01 06:40:48;;;;;;;;;;;;;;;15.25;77.16;101952.94;4985916;28;1607;-50
2020/12/01 06:43:21;;;;;;;;;;;;;;;15.26;77.72;101959.13;4992457;28;1564;-50
2020/12/01 06:45:52;;;;;;;;;;;;;;;15.23;77.31;101952.16;5001013;28;870;-51
2020/12/01 06:48:20;;;;;;;;;;;;;;;15.27;77.54;101958.19;5005595;28;1505;-50
2020/12/01 06:50:50;;;;;;;;;;;;;;;15.23;78.05;101952.16;5003256;28;1775;-50
2020/12/01 06:53:35;;;;;;;;;;;;;;;15.22;78.12;101949.56;4997292;28;1827;-51
2020/12/01 06:56:21;;;;;;;;;;;;;;;15.23;77.10;101945.97;5004967;28;1839;-51
2020/12/01 06:58:48;;;;;;;;;;;;;;;15.23;77.61;101951.31;4981354;28;2073;-50
2020/12/01 07:01:22;;;;;;;;;;;;;;;15.24;77.78;101947.69;4987069;28;1886;-50
2020/12/01 07:03:58;;;;;;;;;;;;;;;15.22;77.29;101954.91;5010741;28;1928;-52
2020/12/01 07:06:25;;;;;;;;;;;;;;;15.26;78.00;101961.78;4991582;28;1666;-51
2020/12/01 07:08:50;;;;;;;;;;;;;;;15.22;78.04;101954.91;4995434;28;1548;-51
2020/12/01 07:11:29;;;;;;;;;;;;;;;15.23;78.30;101945.97;5002190;28;1474;-50
2020/12/01 07:14:16;;;;;;;;;;;;;;;15.21;78.28;101953.19;4992349;28;2255;-51
2020/12/01 07:16:45;;;;;;;;;;;;;;;15.19;77.92;101952.41;5003113;28;1544;-52
2020/12/01 07:19:19;;;;;;;;;;;;;;;15.22;77.52;101957.56;4998738;28;1550;-50
2020/12/01 07:21:49;;;;;;;;;;;;;;;15.18;78.16;101953.34;4999860;28;1942;-51
2020/12/01 07:24:17;;;;;;;;;;;;;;;15.19;77.77;101955.06;5006333;28;1844;-50
2020/12/01 07:26:52;;;;;;;;;;;;;;;15.17;78.05;101956.97;4993278;28;1585;-51
2020/12/01 07:29:30;;;;;;;;;;;;;;;15.14;77.32;101951.78;4996051;28;1569;-50
2020/12/01 07:32:08;;;;;;;;;;;;;;;15.16;77.75;101955.22;4981395;28;1437;-51
2020/12/01 07:34:33;;;;;;;;;;;;;;;15.17;77.94;101956.97;5001815;28;1757;-51
2020/12/01 07:37:20;;;;;;;;;;;;;;;15.18;78.32;101948.00;5003803;28;1447;-51
2020/12/01 07:39:53;;;;;;;;;;;;;;;15.19;78.35;101952.41;4999657;28;1710;-50
2020/12/01 07:42:20;;;;;;;;;;;;;;;15.23;78.17;101948.63;4998751;28;1894;-51
2020/12/01 07:44:47;;;;;;;;;;;;;;;15.20;78.21;101952.34;5002459;28;1398;-51
2020/12/01 07:47:16;;;;;;;;;;;;;;;15.21;77.58;101947.88;4991310;28;11977;-51
2020/12/01 07:49:42;;;;;;;;;;;;;;;15.21;78.68;101940.72;4989185;28;1438;-51
2020/12/01 07:52:14;;;;;;;;;;;;;;;15.26;77.77;101953.78;4994483;28;1570;-52
2020/12/01 07:54:41;;;;;;;;;;;;;;;15.28;77.53;101943.94;4996206;28;1688;-51
2020/12/01 07:57:11;;;;;;;;;;;;;;;15.35;77.58;101944.47;4997699;28;1142;-50
2020/12/01 07:59:45;;;;;;;;;;;;;;;15.40;77.31;101937.94;4995097;28;1822;-50
2020/12/01 08:02:13;;;;;;;;;;;;;;;15.45;76.13;101943.00;4991437;28;1894;-50
2020/12/01 08:04:38;;;;;;;;;;;;;;;15.49;76.45;101942.75;4992635;28;1566;-50
2020/12/01 08:07:06;;;;;;;;;;;;;;;15.63;76.56;101943.81;4993664;28;1540;-51
2020/12/01 08:09:32;;;;;;;;;;;;;;;15.67;76.03;101946.22;4994550;28;1534;-50
2020/12/01 08:12:06;;;;;;;;;;;;;;;15.76;76.26;101944.88;4994083;28;1784;-51
2020/12/01 08:14:32;;;;;;;;;;;;;;;15.83;75.51;101946.25;4994163;28;1455;-51
2020/12/01 08:17:15;;;;;;;;;;;;;;;15.81;76.17;101953.47;4992138;28;1607;-51
2020/12/01 08:19:41;;;;;;;;;;;;;;;15.86;76.08;101955.91;4989670;28;1505;-49
2020/12/01 08:22:23;;;;;;;;;;;;;;;16.05;76.30;101953.03;4994927;28;1910;-50
2020/12/01 08:24:49;;;;;;;;;;;;;;;16.09;75.86;101957.25;4992635;28;1474;-49
2020/12/01 08:27:18;;;;;;;;;;;;;;;16.11;75.67;101960.69;4998561;28;1085;-50
2020/12/01 08:29:52;;;;;;;;;;;;;;;16.22;76.59;101955.63;4995141;28;1884;-50
2020/12/01 08:32:24;;;;;;;;;;;;;;;16.43;75.94;101944.63;4991654;28;1545;-50
2020/12/01 08:35:08;;;;;;;;;;;;;;;16.40;74.94;101947.50;4998896;28;1632;-50
2020/12/01 08:37:52;;;;;;;;;;;;;;;16.42;75.08;101942.94;5001983;28;1756;-50
2020/12/01 08:40:42;;;;;;;;;;;;;;;16.49;76.25;101949.59;5003021;28;1816;-50
2020/12/01 08:43:22;;;;;;;;;;;;;;;16.54;75.98;101942.22;4995820;28;1946;-51
2020/12/01 08:46:11;;;;;;;;;;;;;;;16.59;75.19;101950.81;5004771;28;1159;-51
2020/12/01 08:48:48;;;;;;;;;;;;;;;16.63;75.84;101939.00;5000112;28;1503;-50
2020/12/01 08:51:29;;;;;;;;;;;;;;;16.68;74.93;101934.22;4992178;28;1601;-50
2020/12/01 08:54:14;;;;;;;;;;;;;;;16.70;75.77;101943.00;4993831;28;1477;-50
2020/12/01 08:56:43;;;;;;;;;;;;;;;16.86;75.89;101936.78;5008245;28;1755;-49
2020/12/01 08:59:11;;;;;;;;;;;;;;;16.85;74.70;101925.25;4997496;28;1497;-50
2020/12/01 09:01:42;;;;;;;;;;;;;;;16.84;75.63;101931.53;4992874;28;1894;-50
2020/12/01 09:04:28;;;;;;;;;;;;;;;16.83;76.03;101928.94;4985314;28;1773;-51
2020/12/01 09:06:56;;;;;;;;;;;;;;;16.89;74.85;101932.13;4990064;28;1675;-49
2020/12/01 09:09:27;;;;;;;;;;;;;;;16.89;75.11;101924.09;4988073;28;1854;-50
2020/12/01 09:15:27;;;;;;;;;;;;;;;16.96;75.27;101913.03;5023613;28;2532;-50
2020/12/01 09:23:35;;;;;;;;;;;;;;;16.95;75.10;101904.16;5016190;28;1431;-49
2020/12/01 09:26:02;;;;;;;;;;;;;;;16.93;75.45;101895.38;5005550;28;1599;-50
2020/12/01 09:28:31;;;;;;;;;;;;;;;16.90;75.78;101880.38;4999533;28;1653;-49
2020/12/01 09:31:06;;;;;;;;;;;;;;;16.92;75.97;101876.78;5001352;28;1302;-50
2020/12/01 09:33:32;;;;;;;;;;;;;;;16.95;75.75;101882.78;5000061;28;1834;-50
2020/12/01 09:35:59;;;;;;;;;;;;;;;16.90;75.46;101869.69;5014659;28;1685;-50
2020/12/01 09:38:27;;;;;;;;;;;;;;;16.87;75.83;101863.69;4993673;28;1949;-50
2020/12/01 09:40:53;;;;;;;;;;;;;;;16.89;75.71;101872.47;4998375;28;1886;-50
2020/12/01 09:44:18;;;;;;;;;;;;;;;16.87;75.49;101861.00;5000302;28;1557;-50
2020/12/01 09:46:12;;;;;;;;;;;;;;;16.88;75.80;101860.06;4978703;28;1123;-49
2020/12/01 09:48:42;;;;;;;;;;;;;;;16.96;74.94;101855.09;4987422;28;1807;-50
2020/12/01 09:51:08;;;;;;;;;;;;;;;16.93;74.98;101846.41;4992620;28;1855;-50
2020/12/01 10:34:25;;;;;;;;;;;;;;;16.81;75.52;101845.31;4997813;28;1663;-50
2020/12/01 10:36:52;;;;;;;;;;;;;;;16.79;76.43;101844.56;5005031;28;850;-49
2020/12/01 10:39:17;;;;;;;;;;;;;;;16.74;75.45;101841.34;4996401;28;1757;-50
2020/12/01 10:41:43;;;;;;;;;;;;;;;16.76;76.11;101844.78;4997896;28;1882;-50
2020/12/01 10:44:26;;;;;;;;;;;;;;;16.75;76.00;101840.38;4998586;28;1582;-50
2020/12/01 10:46:51;;;;;;;;;;;;;;;16.79;75.71;101844.56;4993661;28;1874;-50
2020/12/01 10:49:17;;;;;;;;;;;;;;;16.74;76.11;101836.84;4999166;28;1018;-50
2020/12/01 10:51:46;;;;;;;;;;;;;;;16.80;75.87;101840.94;5001989;28;2212;-49
2020/12/01 10:54:17;;;;;;;;;;;;;;;16.82;76.05;101839.06;5000727;28;1536;-50
2020/12/01 10:56:45;;;;;;;;;;;;;;;16.83;75.09;101827.41;5008687;28;1791;-50
2020/12/01 10:59:10;;;;;;;;;;;;;;;16.88;76.21;101833.34;4988772;28;1739;-49
2020/12/01 11:01:36;;;;;;;;;;;;;;;16.91;75.26;101838.53;4981672;28;1890;-50
2020/12/01 11:04:03;;;;;;;;;;;;;;;16.85;75.37;101828.19;4998139;28;1723;-50
2020/12/01 11:06:31;;;;;;;;;;;;;;;16.87;74.89;101837.84;5003813;28;1557;-50
2020/12/01 11:08:56;;;;;;;;;;;;;;;16.93;75.57;101833.06;5006341;28;1509;-49
2020/12/01 11:11:22;;;;;;;;;;;;;;;16.86;74.98;101829.91;4999625;28;1645;-49
2020/12/01 11:13:49;;;;;;;;;;;;;;;16.84;75.01;101830.00;4997191;28;1529;-49
2020/12/01 11:16:16;;;;;;;;;;;;;;;16.85;75.86;101838.88;4995364;28;1017;-49
2020/12/01 11:18:42;;;;;;;;;;;;;;;16.83;75.38;101830.97;4995326;28;1935;-51
2020/12/01 11:21:09;;;;;;;;;;;;;;;16.82;76.47;101828.38;5006185;28;1909;-50
2020/12/01 11:23:34;;;;;;;;;;;;;;;16.80;76.48;101819.59;4999148;28;1581;-50
2020/12/01 11:26:00;;;;;;;;;;;;;;;16.84;76.01;101816.66;4991673;28;1551;-50
2020/12/01 11:28:27;;;;;;;;;;;;;;;16.92;75.44;101810.81;5000516;28;1605;-50
2020/12/01 11:30:53;;;;;;;;;;;;;;;16.90;76.27;101815.41;4999589;28;1636;-50
2020/12/01 11:33:19;;;;;;;;;;;;;;;16.93;75.67;101811.69;4994154;28;1661;-49
2020/12/01 11:35:45;;;;;;;;;;;;;;;16.88;75.33;101801.28;4995982;28;1506;-50
2020/12/01 11:38:12;;;;;;;;;;;;;;;17.08;75.06;101811.56;4996176;28;1908;-49
2020/12/01 11:40:38;;;;;;;;;;;;;;;17.02;75.01;101787.91;4995590;28;1525;-49
2020/12/01 11:43:05;;;;;;;;;;;;;;;16.92;75.98;101799.28;4996436;28;1898;-50
2020/12/01 11:45:31;;;;;;;;;;;;;;;16.92;75.48;101793.94;4995750;28;1184;-50
2020/12/01 11:47:58;;;;;;;;;;;;;;;16.95;76.35;101802.63;5004611;28;1753;-49
2020/12/01 11:50:24;;;;;;;;;;;;;;;16.99;75.45;101785.44;5004642;28;1542;-50
2020/12/01 11:52:52;;;;;;;;;;;;;;;16.98;75.11;101790.88;4994199;28;1617;-50
2020/12/01 11:55:19;;;;;;;;;;;;;;;17.03;76.02;101802.13;4997462;28;1885;-50
2020/12/01 11:57:45;;;;;;;;;;;;;;;17.04;76.01;101791.34;5002393;28;1731;-49
2020/12/01 12:00:29;;;;;;;;;;;;;;;17.15;74.82;101797.81;5001328;28;825;-50
2020/12/01 12:02:55;;;;;;;;;;;;;;;17.13;74.99;101799.72;5002647;28;1964;-50
2020/12/01 12:05:21;;;;;;;;;;;;;;;17.07;75.99;101791.16;4996817;28;1971;-50
2020/12/01 12:07:48;;;;;;;;;;;;;;;17.06;75.36;101792.09;4998189;28;1745;-49
2020/12/01 12:10:13;;;;;;;;;;;;;;;17.12;75.89;101792.69;4998631;28;2972;-50
2020/12/01 12:12:39;;;;;;;;;;;;;;;17.15;74.76;101781.78;5005015;28;1482;-49
2020/12/01 12:15:05;;;;;;;;;;;;;;;17.16;74.78;101792.38;5003961;28;1382;-49
2020/12/01 12:17:30;;;;;;;;;;;;;;;17.14;75.60;101786.28;4996674;28;1864;-49
2020/12/01 12:19:56;;;;;;;;;;;;;;;17.18;75.84;101790.47;5000718;28;1661;-49
2020/12/01 12:22:22;;;;;;;;;;;;;;;17.21;75.37;101782.25;5007845;28;1914;-50
2020/12/01 12:24:47;;;;;;;;;;;;;;;17.19;75.56;101789.53;5003053;28;1833;-51
2020/12/01 12:27:13;;;;;;;;;;;;;;;17.19;74.94;101780.63;4997812;28;1084;-50
2020/12/01 12:29:38;;;;;;;;;;;;;;;17.21;74.82;101784.06;5006484;28;1789;-49
2020/12/01 12:32:05;;;;;;;;;;;;;;;17.19;75.00;101784.19;4995079;28;1589;-50
2020/12/01 12:34:30;;;;;;;;;;;;;;;17.16;75.70;101776.34;4998252;28;1529;-50
2020/12/01 12:36:56;;;;;;;;;;;;;;;17.12;75.66;101779.31;5005479;28;1708;-50
2020/12/01 12:39:22;;;;;;;;;;;;;;;17.11;75.87;101775.78;5003009;28;2186;-50
2020/12/01 12:41:50;;;;;;;;;;;;;;;17.10;75.91;101782.94;5006399;28;1894;-50
2020/12/01 12:44:15;;;;;;;;;;;;;;;17.06;75.98;101784.09;5003521;28;1812;-49
2020/12/01 12:46:41;;;;;;;;;;;;;;;17.03;75.33;101768.25;5000264;28;1678;-50
2020/12/01 12:49:06;;;;;;;;;;;;;;;17.06;76.33;101778.75;5000059;28;1368;-50
2020/12/01 12:51:33;;;;;;;;;;;;;;;17.06;76.11;101772.53;5001077;28;1512;-49
2020/12/01 12:53:58;;;;;;;;;;;;;;;17.03;75.54;101768.25;5001061;28;1695;-50
2020/12/01 12:56:24;;;;;;;;;;;;;;;17.03;76.33;101768.25;5001169;28;1749;-49
2020/12/01 12:58:53;;;;;;;;;;;;;;;17.02;75.87;101766.53;4999093;28;1766;-50
2020/12/01 13:01:20;;;;;;;;;;;;;;;17.03;75.47;101757.56;4994025;28;1894;-49
2020/12/01 13:03:47;;;;;;;;;;;;;;;17.04;75.47;101759.28;4984447;28;1930;-51
2020/12/01 13:06:13;;;;;;;;;;;;;;;17.04;75.87;101763.78;4996834;28;1589;-50
2020/12/01 13:08:38;;;;;;;;;;;;;;;17.02;76.61;101763.00;4999515;28;1611;-49
2020/12/01 13:11:03;;;;;;;;;;;;;;;17.06;75.91;101756.50;4995778;28;1653;-50
2020/12/01 13:13:30;;;;;;;;;;;;;;;17.10;75.45;101772.25;5013488;28;1544;-50
2020/12/01 13:15:55;;;;;;;;;;;;;;;17.01;76.70;101762.16;5002633;28;1724;-49
2020/12/01 13:18:22;;;;;;;;;;;;;;;17.02;75.57;101766.53;4993280;28;1569;-49
2020/12/01 13:20:49;;;;;;;;;;;;;;;17.00;76.09;101763.09;5002979;28;1739;-49
2020/12/01 13:23:14;;;;;;;;;;;;;;;17.00;75.86;101760.44;4999232;28;2115;-50
2020/12/01 13:25:39;;;;;;;;;;;;;;;17.12;76.21;101765.94;4996519;28;1556;-50
2020/12/01 13:28:05;;;;;;;;;;;;;;;17.15;75.32;101771.97;4996854;28;1403;-50
2020/12/01 13:30:31;;;;;;;;;;;;;;;17.10;75.80;101772.25;5000680;28;1364;-49
2020/12/01 13:32:56;;;;;;;;;;;;;;;17.14;75.13;101766.72;4982803;28;1632;-50
2020/12/01 13:35:23;;;;;;;;;;;;;;;17.04;76.47;101769.97;4972441;28;1132;-51
2020/12/01 13:37:49;;;;;;;;;;;;;;;17.00;76.36;101772.94;4970428;28;994;-50
2020/12/01 13:40:15;;;;;;;;;;;;;;;17.09;75.92;101756.31;4974166;28;1243;-50
2020/12/01 13:42:40;;;;;;;;;;;;;;;17.06;75.14;101756.50;4981037;28;1878;-50
2020/12/01 13:45:07;;;;;;;;;;;;;;;17.08;75.94;101766.13;4973695;28;1282;-51
2020/12/01 13:47:32;;;;;;;;;;;;;;;17.13;74.75;101768.53;4979194;28;1674;-50
2020/12/01 13:49:58;;;;;;;;;;;;;;;17.06;75.71;101760.03;4986879;28;1167;-51
2020/12/01 13:52:23;;;;;;;;;;;;;;;17.03;75.50;101773.59;4971118;28;870;-51
2020/12/01 13:54:48;;;;;;;;;;;;;;;17.06;75.99;101769.88;4971144;28;1554;-50
2020/12/01 13:57:14;;;;;;;;;;;;;;;17.05;75.70;101771.69;4971247;28;806;-51
2020/12/01 13:59:39;;;;;;;;;;;;;;;17.04;75.26;101767.28;4971332;28;823;-51
2020/12/01 14:02:04;;;;;;;;;;;;;;;17.08;75.17;101766.13;4977306;28;1886;-51